Airfield :
LOGIN :

Register | Disclaimer

   EN    FR    IT 

 










Legend :    VFR   Marginal VFR   IFR   Intensive IFR   Very Intensive IFR
Visi :
Ceiling :
>= 8 km
>= 3000ft
5 to 8 km
1000 to 3000 ft
1500m to 5 km
500 to 1000 ft
800 to 1500m
200 to 500 ft
< 800m
< 200 ft
Symbols :   Thunderstorms  Fog  Heavy snow  Heavy precipitations  Wind > 20 kt
SIGMETs :     Misc.  Thunderstorms  Icing  Turbulence  Mountain Waves  Volcanic Ashes







- Airport Elevation : 1585 ft
- IATA code : SIR


LSGS - Sion

CURRENT METAR :
  • 221820Z 25004KT 130V300 9999 FEW150 17/07 Q1020

EXPIRED METARs :
  • 221750Z 26008KT 210V320 9999 FEW150 18/06 Q1020
  • 221720Z 27009KT 240V310 9999 FEW110 19/05 Q1020
  • 221650Z 27011KT 9999 FEW110 20/05 Q1019
  • 221620Z 26012KT 9999 FEW110 21/06 Q1019
  • 221550Z 26013KT 9999 FEW090 21/06 Q1019

TAF TAF LSGS
Valid from the 22 at 15:00 until the 23 at 00:00 UTC


221425Z 2215/2224 24010KT CAVOK
BECMG 2216/2218 VRB03KT
No reported NOTAMs for that airfield.



MET'MAP, your aeronautical weather chart ! - Copyright ORBIFLY December 2007 - Disclaimer

ORBIFLY MET'MAP TEAM :

Programming & Development : Alexandra Zaïnal
Concept & Development : Baudouin d'Aumeries
Co-Development & Prog : Marc-Olivier Méhu
Technical & hardware support : Manuel Goepfert

Contact : metmap@orbifly.com




SOURCES & CREDITS :

   NOAA